sensor_id;sensor_type;location;lat;lon;timestamp;pressure;altitude;pressure_sealevel;temperature;humidity
34065;BME280;20339;49.754;20.158;2024-03-02T00:01:28;96053.30;;;6.25;84.92
34065;BME280;20339;49.754;20.158;2024-03-02T00:04:01;96050.73;;;5.98;84.69
34065;BME280;20339;49.754;20.158;2024-03-02T00:06:34;96048.29;;;5.92;85.53
34065;BME280;20339;49.754;20.158;2024-03-02T00:09:10;96047.61;;;5.92;85.54
34065;BME280;20339;49.754;20.158;2024-03-02T00:11:42;96048.40;;;6.02;86.52
34065;BME280;20339;49.754;20.158;2024-03-02T00:14:14;96052.88;;;6.14;86.46
34065;BME280;20339;49.754;20.158;2024-03-02T00:16:45;96053.98;;;6.14;86.26
34065;BME280;20339;49.754;20.158;2024-03-02T00:19:23;96048.40;;;6.06;85.79
34065;BME280;20339;49.754;20.158;2024-03-02T00:21:56;96039.90;;;5.90;85.83
34065;BME280;20339;49.754;20.158;2024-03-02T00:24:33;96041.18;;;5.99;86.91
34065;BME280;20339;49.754;20.158;2024-03-02T00:27:07;96042.44;;;5.99;86.23
34065;BME280;20339;49.754;20.158;2024-03-02T00:29:42;96037.88;;;5.77;86.13
34065;BME280;20339;49.754;20.158;2024-03-02T00:32:15;96034.59;;;5.93;87.60
34065;BME280;20339;49.754;20.158;2024-03-02T00:34:49;96036.40;;;6.21;88.16
34065;BME280;20339;49.754;20.158;2024-03-02T00:37:26;96031.71;;;6.29;87.36
34065;BME280;20339;49.754;20.158;2024-03-02T00:40:03;96035.52;;;6.24;87.46
34065;BME280;20339;49.754;20.158;2024-03-02T00:42:36;96033.41;;;6.22;87.33
34065;BME280;20339;49.754;20.158;2024-03-02T00:45:09;96035.61;;;6.28;87.80
34065;BME280;20339;49.754;20.158;2024-03-02T00:47:44;96031.23;;;6.44;88.29
34065;BME280;20339;49.754;20.158;2024-03-02T00:50:18;96033.85;;;6.51;87.54
34065;BME280;20339;49.754;20.158;2024-03-02T00:52:57;96031.04;;;6.20;86.98
34065;BME280;20339;49.754;20.158;2024-03-02T00:55:33;96027.88;;;6.23;87.75
34065;BME280;20339;49.754;20.158;2024-03-02T00:58:06;96026.07;;;6.31;87.85
34065;BME280;20339;49.754;20.158;2024-03-02T01:00:39;96027.33;;;6.31;87.73
34065;BME280;20339;49.754;20.158;2024-03-02T01:03:10;96027.77;;;6.33;87.77
34065;BME280;20339;49.754;20.158;2024-03-02T01:05:47;96025.13;;;6.30;87.82
34065;BME280;20339;49.754;20.158;2024-03-02T01:08:20;96020.02;;;6.29;87.89
34065;BME280;20339;49.754;20.158;2024-03-02T01:10:56;96024.48;;;6.31;88.05
34065;BME280;20339;49.754;20.158;2024-03-02T01:13:32;96023.98;;;6.35;88.09
34065;BME280;20339;49.754;20.158;2024-03-02T01:16:04;96023.49;;;6.37;88.14
34065;BME280;20339;49.754;20.158;2024-03-02T01:18:37;96022.07;;;6.35;87.75
34065;BME280;20339;49.754;20.158;2024-03-02T01:21:13;96017.23;;;6.30;87.80
34065;BME280;20339;49.754;20.158;2024-03-02T01:23:46;96022.23;;;6.38;88.17
34065;BME280;20339;49.754;20.158;2024-03-02T01:26:19;96022.16;;;6.42;88.27
34065;BME280;20339;49.754;20.158;2024-03-02T01:28:55;96018.25;;;6.46;88.39
34065;BME280;20339;49.754;20.158;2024-03-02T01:31:32;96017.42;;;6.49;88.25
34065;BME280;20339;49.754;20.158;2024-03-02T01:34:05;96012.00;;;6.41;87.48
34065;BME280;20339;49.754;20.158;2024-03-02T01:36:42;96007.66;;;6.35;87.70
34065;BME280;20339;49.754;20.158;2024-03-02T01:39:22;96006.05;;;6.40;88.07
34065;BME280;20339;49.754;20.158;2024-03-02T01:41:57;96005.84;;;6.40;88.00
34065;BME280;20339;49.754;20.158;2024-03-02T01:44:28;95997.27;;;6.32;87.54
34065;BME280;20339;49.754;20.158;2024-03-02T01:47:00;95990.54;;;6.32;88.12
34065;BME280;20339;49.754;20.158;2024-03-02T01:49:40;96000.53;;;6.40;88.31
34065;BME280;20339;49.754;20.158;2024-03-02T01:52:17;95990.92;;;6.16;87.24
34065;BME280;20339;49.754;20.158;2024-03-02T01:54:49;95992.52;;;5.96;87.28
34065;BME280;20339;49.754;20.158;2024-03-02T01:57:21;95994.20;;;5.99;88.13
34065;BME280;20339;49.754;20.158;2024-03-02T01:59:55;95987.15;;;5.96;88.14
34065;BME280;20339;49.754;20.158;2024-03-02T02:02:29;95992.67;;;5.94;87.91
34065;BME280;20339;49.754;20.158;2024-03-02T02:05:00;95986.85;;;5.71;87.51
34065;BME280;20339;49.754;20.158;2024-03-02T02:07:34;95982.95;;;5.59;88.08
34065;BME280;20339;49.754;20.158;2024-03-02T02:10:10;95989.38;;;5.65;88.92
34065;BME280;20339;49.754;20.158;2024-03-02T02:12:46;95997.57;;;5.62;88.42
34065;BME280;20339;49.754;20.158;2024-03-02T02:15:30;95993.19;;;5.47;88.02
34065;BME280;20339;49.754;20.158;2024-03-02T02:18:02;95991.50;;;5.48;89.23
34065;BME280;20339;49.754;20.158;2024-03-02T02:20:38;95990.93;;;5.51;88.74
34065;BME280;20339;49.754;20.158;2024-03-02T02:23:12;95990.39;;;5.46;88.97
34065;BME280;20339;49.754;20.158;2024-03-02T02:25:47;95985.05;;;5.50;89.08
34065;BME280;20339;49.754;20.158;2024-03-02T02:28:18;95980.68;;;5.56;89.55
34065;BME280;20339;49.754;20.158;2024-03-02T02:30:52;95981.33;;;5.71;90.14
34065;BME280;20339;49.754;20.158;2024-03-02T02:33:28;95970.02;;;5.70;89.63
34065;BME280;20339;49.754;20.158;2024-03-02T02:36:00;95975.96;;;5.73;89.40
34065;BME280;20339;49.754;20.158;2024-03-02T02:38:36;95969.79;;;5.50;88.55
34065;BME280;20339;49.754;20.158;2024-03-02T02:41:13;95964.26;;;5.47;89.42
34065;BME280;20339;49.754;20.158;2024-03-02T02:43:49;95962.89;;;5.48;89.39
34065;BME280;20339;49.754;20.158;2024-03-02T02:46:23;95965.09;;;5.44;89.51
34065;BME280;20339;49.754;20.158;2024-03-02T02:48:56;95962.58;;;5.39;89.47
34065;BME280;20339;49.754;20.158;2024-03-02T02:51:29;95960.59;;;5.35;89.57
34065;BME280;20339;49.754;20.158;2024-03-02T02:54:04;95966.05;;;5.41;90.22
34065;BME280;20339;49.754;20.158;2024-03-02T02:56:35;95965.23;;;5.50;90.41
34065;BME280;20339;49.754;20.158;2024-03-02T02:59:06;95971.80;;;5.63;90.93
34065;BME280;20339;49.754;20.158;2024-03-02T03:01:38;95973.07;;;5.70;90.83
34065;BME280;20339;49.754;20.158;2024-03-02T03:04:14;95970.60;;;5.77;90.93
34065;BME280;20339;49.754;20.158;2024-03-02T03:06:47;95971.06;;;5.87;91.01
34065;BME280;20339;49.754;20.158;2024-03-02T03:09:21;95973.05;;;5.90;90.68
34065;BME280;20339;49.754;20.158;2024-03-02T03:11:54;95967.09;;;5.90;90.70
34065;BME280;20339;49.754;20.158;2024-03-02T03:14:27;95970.14;;;5.90;90.14
34065;BME280;20339;49.754;20.158;2024-03-02T03:17:00;95967.39;;;5.76;89.60
34065;BME280;20339;49.754;20.158;2024-03-02T03:19:33;95965.29;;;5.69;90.19
34065;BME280;20339;49.754;20.158;2024-03-02T03:22:09;95966.88;;;5.78;90.70
34065;BME280;20339;49.754;20.158;2024-03-02T03:24:47;95962.65;;;5.73;90.14
34065;BME280;20339;49.754;20.158;2024-03-02T03:27:22;95965.48;;;5.75;90.51
34065;BME280;20339;49.754;20.158;2024-03-02T03:29:54;95968.29;;;5.81;90.67
34065;BME280;20339;49.754;20.158;2024-03-02T03:32:28;95970.91;;;5.85;90.50
34065;BME280;20339;49.754;20.158;2024-03-02T03:34:59;95967.55;;;5.86;90.43
34065;BME280;20339;49.754;20.158;2024-03-02T03:37:33;95972.55;;;5.88;90.59
34065;BME280;20339;49.754;20.158;2024-03-02T03:40:05;95969.60;;;5.75;89.76
34065;BME280;20339;49.754;20.158;2024-03-02T03:42:40;95965.69;;;5.60;90.00
34065;BME280;20339;49.754;20.158;2024-03-02T03:45:11;95970.02;;;5.70;91.01
34065;BME280;20339;49.754;20.158;2024-03-02T03:47:47;95963.70;;;5.80;90.92
34065;BME280;20339;49.754;20.158;2024-03-02T03:50:22;95961.14;;;5.91;91.14
34065;BME280;20339;49.754;20.158;2024-03-02T03:52:56;95960.05;;;6.06;91.45
34065;BME280;20339;49.754;20.158;2024-03-02T03:55:29;95953.30;;;6.14;91.29
34065;BME280;20339;49.754;20.158;2024-03-02T03:58:05;95953.08;;;6.17;90.88
34065;BME280;20339;49.754;20.158;2024-03-02T04:00:40;95957.87;;;6.16;90.69
34065;BME280;20339;49.754;20.158;2024-03-02T04:03:13;95953.18;;;6.16;90.35
34065;BME280;20339;49.754;20.158;2024-03-02T04:05:44;95954.81;;;6.17;90.47
34065;BME280;20339;49.754;20.158;2024-03-02T04:08:17;95954.58;;;6.01;89.71
34065;BME280;20339;49.754;20.158;2024-03-02T04:10:48;95960.52;;;5.97;90.38
34065;BME280;20339;49.754;20.158;2024-03-02T04:13:20;95959.84;;;6.05;90.78
34065;BME280;20339;49.754;20.158;2024-03-02T04:15:58;95961.73;;;6.12;90.74
34065;BME280;20339;49.754;20.158;2024-03-02T04:18:30;95959.04;;;6.03;90.04
34065;BME280;20339;49.754;20.158;2024-03-02T04:21:05;95958.11;;;5.95;89.89
34065;BME280;20339;49.754;20.158;2024-03-02T04:23:39;95956.19;;;5.81;90.00
34065;BME280;20339;49.754;20.158;2024-03-02T04:26:10;95954.40;;;5.77;89.99
34065;BME280;20339;49.754;20.158;2024-03-02T04:28:42;95956.13;;;5.73;90.03
34065;BME280;20339;49.754;20.158;2024-03-02T04:31:13;95958.81;;;5.72;90.30
34065;BME280;20339;49.754;20.158;2024-03-02T04:33:48;95955.39;;;5.75;90.67
34065;BME280;20339;49.754;20.158;2024-03-02T04:36:25;95955.67;;;5.78;90.71
34065;BME280;20339;49.754;20.158;2024-03-02T04:38:59;95955.87;;;5.82;90.77
34065;BME280;20339;49.754;20.158;2024-03-02T04:41:31;95965.08;;;5.83;90.64
34065;BME280;20339;49.754;20.158;2024-03-02T04:44:02;95962.92;;;5.78;90.35
34065;BME280;20339;49.754;20.158;2024-03-02T04:46:34;95963.86;;;5.74;90.41
34065;BME280;20339;49.754;20.158;2024-03-02T04:49:08;95963.72;;;5.66;90.40
34065;BME280;20339;49.754;20.158;2024-03-02T04:51:41;95966.52;;;5.62;90.57
34065;BME280;20339;49.754;20.158;2024-03-02T04:54:16;95961.76;;;5.61;91.04
34065;BME280;20339;49.754;20.158;2024-03-02T04:56:53;95962.60;;;5.72;91.66
34065;BME280;20339;49.754;20.158;2024-03-02T04:59:27;95964.34;;;5.79;91.66
34065;BME280;20339;49.754;20.158;2024-03-02T05:02:04;95967.14;;;5.90;91.80
34065;BME280;20339;49.754;20.158;2024-03-02T05:04:35;95970.48;;;5.72;90.31
34065;BME280;20339;49.754;20.158;2024-03-02T05:07:13;95972.68;;;5.62;90.77
34065;BME280;20339;49.754;20.158;2024-03-02T05:09:48;95977.23;;;5.67;91.43
34065;BME280;20339;49.754;20.158;2024-03-02T05:12:20;95979.90;;;5.65;90.98
34065;BME280;20339;49.754;20.158;2024-03-02T05:15:21;95981.21;;;5.54;90.87
34065;BME280;20339;49.754;20.158;2024-03-02T05:17:55;95979.21;;;5.52;90.80
34065;BME280;20339;49.754;20.158;2024-03-02T05:20:34;95978.42;;;5.53;91.32
34065;BME280;20339;49.754;20.158;2024-03-02T05:23:10;95983.57;;;5.57;91.44
34065;BME280;20339;49.754;20.158;2024-03-02T05:25:43;95986.84;;;5.62;91.68
34065;BME280;20339;49.754;20.158;2024-03-02T05:28:17;95987.95;;;5.67;91.47
34065;BME280;20339;49.754;20.158;2024-03-02T05:30:49;95984.00;;;5.62;91.16
34065;BME280;20339;49.754;20.158;2024-03-02T05:33:21;95980.73;;;5.54;91.08
34065;BME280;20339;49.754;20.158;2024-03-02T05:35:54;95981.95;;;5.50;91.27
34065;BME280;20339;49.754;20.158;2024-03-02T05:38:25;95977.48;;;5.52;91.84
34065;BME280;20339;49.754;20.158;2024-03-02T05:41:01;95979.05;;;5.61;92.07
34065;BME280;20339;49.754;20.158;2024-03-02T05:43:35;95984.70;;;5.69;92.11
34065;BME280;20339;49.754;20.158;2024-03-02T05:46:11;95991.75;;;5.77;92.35
34065;BME280;20339;49.754;20.158;2024-03-02T05:48:45;95991.75;;;5.83;92.32
34065;BME280;20339;49.754;20.158;2024-03-02T05:51:16;95997.50;;;5.91;92.35
34065;BME280;20339;49.754;20.158;2024-03-02T05:53:51;96002.83;;;5.99;92.22
34065;BME280;20339;49.754;20.158;2024-03-02T05:56:22;96009.53;;;5.81;91.07
34065;BME280;20339;49.754;20.158;2024-03-02T05:58:56;96010.77;;;5.66;91.09
34065;BME280;20339;49.754;20.158;2024-03-02T06:01:41;96009.31;;;5.71;92.01
34065;BME280;20339;49.754;20.158;2024-03-02T06:04:16;96010.06;;;5.82;92.34
34065;BME280;20339;49.754;20.158;2024-03-02T06:06:51;96011.10;;;5.85;92.04
34065;BME280;20339;49.754;20.158;2024-03-02T06:09:24;96007.95;;;5.87;92.10
34065;BME280;20339;49.754;20.158;2024-03-02T06:12:00;96005.52;;;5.99;92.53
34065;BME280;20339;49.754;20.158;2024-03-02T06:14:38;96003.36;;;6.12;92.65
34065;BME280;20339;49.754;20.158;2024-03-02T06:17:13;96008.83;;;6.25;92.99
34065;BME280;20339;49.754;20.158;2024-03-02T06:19:50;96008.06;;;6.36;92.84
34065;BME280;20339;49.754;20.158;2024-03-02T06:22:21;96002.79;;;6.46;92.90
34065;BME280;20339;49.754;20.158;2024-03-02T06:24:55;96005.71;;;6.54;92.80
34065;BME280;20339;49.754;20.158;2024-03-02T06:27:28;96004.59;;;6.62;92.76
34065;BME280;20339;49.754;20.158;2024-03-02T06:29:59;96006.38;;;6.65;92.49
34065;BME280;20339;49.754;20.158;2024-03-02T06:32:37;96006.13;;;6.55;92.01
34065;BME280;20339;49.754;20.158;2024-03-02T06:35:10;96002.87;;;6.55;92.22
34065;BME280;20339;49.754;20.158;2024-03-02T06:37:42;96003.27;;;6.63;92.67
34065;BME280;20339;49.754;20.158;2024-03-02T06:40:23;96004.41;;;6.71;92.61
34065;BME280;20339;49.754;20.158;2024-03-02T06:42:55;96009.61;;;6.78;92.76
34065;BME280;20339;49.754;20.158;2024-03-02T06:45:33;96005.67;;;6.86;92.85
34065;BME280;20339;49.754;20.158;2024-03-02T06:48:09;96010.36;;;6.92;92.55
34065;BME280;20339;49.754;20.158;2024-03-02T06:50:41;96011.64;;;6.84;92.14
34065;BME280;20339;49.754;20.158;2024-03-02T06:53:12;96003.61;;;6.72;92.01
34065;BME280;20339;49.754;20.158;2024-03-02T06:55:43;96000.52;;;6.70;92.48
34065;BME280;20339;49.754;20.158;2024-03-02T06:58:16;95997.16;;;6.81;92.95
34065;BME280;20339;49.754;20.158;2024-03-02T07:00:49;96004.48;;;6.96;93.15
34065;BME280;20339;49.754;20.158;2024-03-02T07:03:24;96005.29;;;7.07;93.12
34065;BME280;20339;49.754;20.158;2024-03-02T07:05:59;96009.45;;;7.18;93.12
34065;BME280;20339;49.754;20.158;2024-03-02T07:08:35;96010.87;;;7.22;92.82
34065;BME280;20339;49.754;20.158;2024-03-02T07:11:06;96011.40;;;7.21;92.50
34065;BME280;20339;49.754;20.158;2024-03-02T07:13:37;96016.44;;;7.24;92.33
34065;BME280;20339;49.754;20.158;2024-03-02T07:16:08;96015.90;;;7.26;92.15
34065;BME280;20339;49.754;20.158;2024-03-02T07:19:02;96015.46;;;7.27;92.04
34065;BME280;20339;49.754;20.158;2024-03-02T07:21:33;96017.81;;;7.31;91.73
34065;BME280;20339;49.754;20.158;2024-03-02T07:24:07;96024.35;;;7.32;91.80
34065;BME280;20339;49.754;20.158;2024-03-02T07:26:45;96028.02;;;7.38;91.69
34065;BME280;20339;49.754;20.158;2024-03-02T07:29:18;96031.37;;;7.42;91.58
34065;BME280;20339;49.754;20.158;2024-03-02T07:31:52;96032.94;;;7.47;91.47
34065;BME280;20339;49.754;20.158;2024-03-02T07:34:23;96041.61;;;7.53;91.50
34065;BME280;20339;49.754;20.158;2024-03-02T07:36:55;96042.45;;;7.61;91.51
34065;BME280;20339;49.754;20.158;2024-03-02T07:39:27;96046.73;;;7.70;91.49
34065;BME280;20339;49.754;20.158;2024-03-02T07:42:03;96050.79;;;7.80;91.80
34065;BME280;20339;49.754;20.158;2024-03-02T07:44:40;96056.38;;;7.89;91.56
34065;BME280;20339;49.754;20.158;2024-03-02T07:47:12;96057.37;;;7.92;91.20
34065;BME280;20339;49.754;20.158;2024-03-02T07:49:48;96053.08;;;7.93;91.14
34065;BME280;20339;49.754;20.158;2024-03-02T07:52:21;96054.81;;;8.00;91.30
34065;BME280;20339;49.754;20.158;2024-03-02T07:54:53;96054.38;;;8.10;91.33
34065;BME280;20339;49.754;20.158;2024-03-02T07:57:31;96056.66;;;8.16;91.26
34065;BME280;20339;49.754;20.158;2024-03-02T08:00:04;96058.56;;;8.23;91.11
34065;BME280;20339;49.754;20.158;2024-03-02T08:02:38;96054.52;;;8.25;90.89
34065;BME280;20339;49.754;20.158;2024-03-02T08:05:16;96053.50;;;8.29;90.90
34065;BME280;20339;49.754;20.158;2024-03-02T08:07:52;96053.32;;;8.33;90.83
34065;BME280;20339;49.754;20.158;2024-03-02T08:10:23;96052.87;;;8.38;90.53
34065;BME280;20339;49.754;20.158;2024-03-02T08:12:55;96060.27;;;8.44;90.32
34065;BME280;20339;49.754;20.158;2024-03-02T08:15:28;96060.57;;;8.52;90.17
34065;BME280;20339;49.754;20.158;2024-03-02T08:18:02;96062.48;;;8.51;89.90
34065;BME280;20339;49.754;20.158;2024-03-02T08:20:36;96068.00;;;8.48;89.73
34065;BME280;20339;49.754;20.158;2024-03-02T08:23:15;96068.33;;;8.48;89.70
34065;BME280;20339;49.754;20.158;2024-03-02T08:25:52;96065.64;;;8.47;89.54
34065;BME280;20339;49.754;20.158;2024-03-02T08:28:23;96067.91;;;8.47;89.39
34065;BME280;20339;49.754;20.158;2024-03-02T08:30:56;96068.68;;;8.49;89.17
34065;BME280;20339;49.754;20.158;2024-03-02T08:33:28;96067.80;;;8.52;89.09
34065;BME280;20339;49.754;20.158;2024-03-02T08:36:03;96065.82;;;8.55;88.90
34065;BME280;20339;49.754;20.158;2024-03-02T08:38:40;96066.10;;;8.58;88.76
34065;BME280;20339;49.754;20.158;2024-03-02T08:41:19;96067.09;;;8.62;88.61
34065;BME280;20339;49.754;20.158;2024-03-02T08:43:50;96066.14;;;8.61;88.46
34065;BME280;20339;49.754;20.158;2024-03-02T08:46:26;96065.69;;;8.59;88.38
34065;BME280;20339;49.754;20.158;2024-03-02T08:49:08;96066.05;;;8.64;88.30
34065;BME280;20339;49.754;20.158;2024-03-02T08:51:47;96063.19;;;8.71;88.20
34065;BME280;20339;49.754;20.158;2024-03-02T08:54:28;96065.27;;;8.76;88.11
34065;BME280;20339;49.754;20.158;2024-03-02T08:56:59;96068.15;;;8.77;87.88
34065;BME280;20339;49.754;20.158;2024-03-02T08:59:33;96072.69;;;8.79;87.74
34065;BME280;20339;49.754;20.158;2024-03-02T09:02:09;96073.75;;;8.78;87.50
34065;BME280;20339;49.754;20.158;2024-03-02T09:04:45;96073.40;;;8.77;87.37
34065;BME280;20339;49.754;20.158;2024-03-02T09:07:22;96073.84;;;8.79;87.34
34065;BME280;20339;49.754;20.158;2024-03-02T09:09:54;96074.16;;;8.83;87.27
34065;BME280;20339;49.754;20.158;2024-03-02T09:12:33;96070.85;;;8.85;87.15
34065;BME280;20339;49.754;20.158;2024-03-02T09:15:06;96072.61;;;8.88;87.14
34065;BME280;20339;49.754;20.158;2024-03-02T09:17:37;96081.27;;;8.86;86.99
34065;BME280;20339;49.754;20.158;2024-03-02T09:20:13;96088.45;;;8.86;86.80
34065;BME280;20339;49.754;20.158;2024-03-02T09:22:45;96094.81;;;8.84;86.87
34065;BME280;20339;49.754;20.158;2024-03-02T09:25:20;96099.25;;;8.81;86.53
34065;BME280;20339;49.754;20.158;2024-03-02T09:27:57;96103.39;;;8.75;86.52
34065;BME280;20339;49.754;20.158;2024-03-02T09:30:31;96108.27;;;8.71;86.47
34065;BME280;20339;49.754;20.158;2024-03-02T09:33:06;96105.09;;;8.71;86.56
34065;BME280;20339;49.754;20.158;2024-03-02T09:35:37;96102.30;;;8.70;86.50
34065;BME280;20339;49.754;20.158;2024-03-02T09:38:10;96098.55;;;8.70;86.63
34065;BME280;20339;49.754;20.158;2024-03-02T09:40:43;96100.45;;;8.77;86.88
34065;BME280;20339;49.754;20.158;2024-03-02T09:43:15;96104.24;;;8.83;87.20
34065;BME280;20339;49.754;20.158;2024-03-02T09:45:53;96105.77;;;8.89;87.51
34065;BME280;20339;49.754;20.158;2024-03-02T09:48:28;96110.13;;;8.98;87.70
34065;BME280;20339;49.754;20.158;2024-03-02T09:51:03;96109.88;;;9.02;87.68
34065;BME280;20339;49.754;20.158;2024-03-02T09:53:38;96110.32;;;9.06;87.93
34065;BME280;20339;49.754;20.158;2024-03-02T09:56:11;96104.35;;;9.16;88.40
34065;BME280;20339;49.754;20.158;2024-03-02T09:58:46;96106.19;;;9.26;88.68
34065;BME280;20339;49.754;20.158;2024-03-02T10:01:21;96109.45;;;9.37;88.41
34065;BME280;20339;49.754;20.158;2024-03-02T10:03:54;96107.28;;;9.37;88.15
34065;BME280;20339;49.754;20.158;2024-03-02T10:06:32;96106.63;;;9.38;88.27
34065;BME280;20339;49.754;20.158;2024-03-02T10:09:04;96103.09;;;9.42;88.29
34065;BME280;20339;49.754;20.158;2024-03-02T10:11:37;96105.25;;;9.49;88.18
34065;BME280;20339;49.754;20.158;2024-03-02T10:14:13;96106.17;;;9.59;88.11
34065;BME280;20339;49.754;20.158;2024-03-02T10:16:47;96102.19;;;9.69;87.94
34065;BME280;20339;49.754;20.158;2024-03-02T10:19:20;96106.98;;;9.76;87.97
34065;BME280;20339;49.754;20.158;2024-03-02T10:21:57;96103.73;;;9.76;87.89
34065;BME280;20339;49.754;20.158;2024-03-02T10:24:41;96104.42;;;9.80;87.95
34065;BME280;20339;49.754;20.158;2024-03-02T10:27:22;96102.02;;;9.86;88.34
34065;BME280;20339;49.754;20.158;2024-03-02T10:29:56;96098.44;;;9.92;88.26
34065;BME280;20339;49.754;20.158;2024-03-02T10:32:33;96097.92;;;9.97;88.08
34065;BME280;20339;49.754;20.158;2024-03-02T10:35:13;96095.73;;;10.03;88.16
34065;BME280;20339;49.754;20.158;2024-03-02T10:37:48;96096.13;;;10.09;87.90
34065;BME280;20339;49.754;20.158;2024-03-02T10:40:23;96099.84;;;10.13;87.94
34065;BME280;20339;49.754;20.158;2024-03-02T10:43:08;96103.39;;;10.08;87.70
34065;BME280;20339;49.754;20.158;2024-03-02T10:45:41;96101.91;;;10.01;87.59
34065;BME280;20339;49.754;20.158;2024-03-02T10:48:18;96100.27;;;9.96;87.63
34065;BME280;20339;49.754;20.158;2024-03-02T10:50:53;96097.80;;;9.95;87.73
34065;BME280;20339;49.754;20.158;2024-03-02T10:53:28;96102.33;;;9.97;87.78
34065;BME280;20339;49.754;20.158;2024-03-02T10:56:12;96098.10;;;9.97;87.73
34065;BME280;20339;49.754;20.158;2024-03-02T10:58:52;96094.61;;;10.05;88.01
34065;BME280;20339;49.754;20.158;2024-03-02T11:01:30;96093.05;;;10.22;88.16
34065;BME280;20339;49.754;20.158;2024-03-02T11:04:08;96088.84;;;10.37;88.07
34065;BME280;20339;49.754;20.158;2024-03-02T11:06:48;96081.02;;;10.53;88.01
34065;BME280;20339;49.754;20.158;2024-03-02T11:09:22;96079.70;;;10.65;87.70
34065;BME280;20339;49.754;20.158;2024-03-02T11:12:03;96079.18;;;10.71;87.45
34065;BME280;20339;49.754;20.158;2024-03-02T11:14:40;96075.74;;;10.74;87.18
34065;BME280;20339;49.754;20.158;2024-03-02T11:17:19;96073.71;;;10.86;87.55
34065;BME280;20339;49.754;20.158;2024-03-02T11:19:53;96070.77;;;11.03;87.76
34065;BME280;20339;49.754;20.158;2024-03-02T11:22:27;96063.96;;;11.12;87.36
34065;BME280;20339;49.754;20.158;2024-03-02T11:25:04;96061.80;;;11.22;86.90
34065;BME280;20339;49.754;20.158;2024-03-02T11:28:03;96065.04;;;11.33;86.87
34065;BME280;20339;49.754;20.158;2024-03-02T11:30:53;96065.77;;;11.41;86.71
34065;BME280;20339;49.754;20.158;2024-03-02T11:33:28;96068.45;;;11.50;86.39
34065;BME280;20339;49.754;20.158;2024-03-02T11:36:02;96064.86;;;11.49;85.86
34065;BME280;20339;49.754;20.158;2024-03-02T11:38:39;96065.11;;;11.58;85.78
34065;BME280;20339;49.754;20.158;2024-03-02T11:41:17;96061.52;;;11.70;85.76
34065;BME280;20339;49.754;20.158;2024-03-02T11:43:54;96061.53;;;11.77;85.26
34065;BME280;20339;49.754;20.158;2024-03-02T11:46:29;96061.52;;;11.84;85.03
34065;BME280;20339;49.754;20.158;2024-03-02T11:49:03;96063.39;;;11.95;84.70
34065;BME280;20339;49.754;20.158;2024-03-02T11:51:37;96060.55;;;12.03;84.15
34065;BME280;20339;49.754;20.158;2024-03-02T11:54:12;96060.52;;;12.09;83.53
34065;BME280;20339;49.754;20.158;2024-03-02T11:56:44;96061.98;;;12.15;83.40
34065;BME280;20339;49.754;20.158;2024-03-02T11:59:16;96061.45;;;12.19;83.09
34065;BME280;20339;49.754;20.158;2024-03-02T12:01:51;96059.73;;;12.25;82.60
34065;BME280;20339;49.754;20.158;2024-03-02T12:04:22;96057.84;;;12.27;82.23
34065;BME280;20339;49.754;20.158;2024-03-02T12:06:58;96054.86;;;12.33;82.06
34065;BME280;20339;49.754;20.158;2024-03-02T12:09:32;96054.20;;;12.39;81.84
34065;BME280;20339;49.754;20.158;2024-03-02T12:12:08;96050.22;;;12.45;81.66
34065;BME280;20339;49.754;20.158;2024-03-02T12:14:40;96053.00;;;12.53;81.71
34065;BME280;20339;49.754;20.158;2024-03-02T12:17:11;96052.77;;;12.56;81.42
34065;BME280;20339;49.754;20.158;2024-03-02T12:19:44;96052.28;;;12.54;81.24
34065;BME280;20339;49.754;20.158;2024-03-02T12:22:19;96051.98;;;12.48;80.92
34065;BME280;20339;49.754;20.158;2024-03-02T12:24:50;96056.60;;;12.51;81.10
34065;BME280;20339;49.754;20.158;2024-03-02T12:27:22;96053.15;;;12.64;81.40
34065;BME280;20339;49.754;20.158;2024-03-02T12:29:53;96050.59;;;12.66;81.14
34065;BME280;20339;49.754;20.158;2024-03-02T12:32:25;96051.87;;;12.69;81.13
34065;BME280;20339;49.754;20.158;2024-03-02T12:35:00;96047.69;;;12.70;80.86
34065;BME280;20339;49.754;20.158;2024-03-02T12:37:32;96048.96;;;12.68;80.77
34065;BME280;20339;49.754;20.158;2024-03-02T12:40:05;96051.61;;;12.68;80.87
34065;BME280;20339;49.754;20.158;2024-03-02T12:42:37;96051.80;;;12.75;80.95
34065;BME280;20339;49.754;20.158;2024-03-02T12:45:09;96055.09;;;12.77;80.63
34065;BME280;20339;49.754;20.158;2024-03-02T12:47:42;96055.81;;;12.78;80.67
34065;BME280;20339;49.754;20.158;2024-03-02T12:50:14;96054.35;;;12.79;80.76
34065;BME280;20339;49.754;20.158;2024-03-02T12:52:52;96045.84;;;12.84;80.75
34065;BME280;20339;49.754;20.158;2024-03-02T12:55:24;96044.85;;;12.89;80.65
34065;BME280;20339;49.754;20.158;2024-03-02T12:57:59;96046.86;;;12.89;80.35
34065;BME280;20339;49.754;20.158;2024-03-02T13:00:36;96043.94;;;12.84;80.28
34065;BME280;20339;49.754;20.158;2024-03-02T13:03:08;96044.17;;;12.83;80.18
34065;BME280;20339;49.754;20.158;2024-03-02T13:05:40;96047.73;;;12.78;80.07
34065;BME280;20339;49.754;20.158;2024-03-02T13:08:13;96042.41;;;12.74;80.00
34065;BME280;20339;49.754;20.158;2024-03-02T13:10:45;96041.04;;;12.78;79.70
34065;BME280;20339;49.754;20.158;2024-03-02T13:13:16;96042.70;;;12.71;79.49
34065;BME280;20339;49.754;20.158;2024-03-02T13:15:48;96042.08;;;12.58;79.30
34065;BME280;20339;49.754;20.158;2024-03-02T13:18:22;96042.44;;;12.50;79.38
34065;BME280;20339;49.754;20.158;2024-03-02T13:20:57;96031.83;;;12.45;79.62
34065;BME280;20339;49.754;20.158;2024-03-02T13:23:30;96035.14;;;12.44;79.79
34065;BME280;20339;49.754;20.158;2024-03-02T13:26:03;96033.36;;;12.36;79.50
34065;BME280;20339;49.754;20.158;2024-03-02T13:28:44;96040.07;;;12.34;79.58
34065;BME280;20339;49.754;20.158;2024-03-02T13:31:16;96036.75;;;12.37;79.98
34065;BME280;20339;49.754;20.158;2024-03-02T13:33:48;96034.19;;;12.42;79.83
34065;BME280;20339;49.754;20.158;2024-03-02T13:36:23;96038.64;;;12.44;79.57